Aviation Digital Data Service (ADDS)

Output produced by METARs form (0443 UTC 19 August 2019)
found at http://www.aviationweather.gov/metar/data/
 
Forecast for: DNAA (ABUJA , NG)
Text: TAF DNAA 182300Z 1900/2006 VRB02KT 9999 FEW008
Forecast period: 0000 to 0900 UTC 19 August 2019
Forecast type: FROM: standard forecast or significant change
Winds: variable direction winds at 2 MPH (2 knots; 1.0 m/s)
Visibility: 6 or more miles 10+ km)
Ceiling: at least 12,000 feet AGL
Clouds: few clouds at 800 feet AGL
Weather: no significant weather forecast for this period
Text: PROB30
Forecast period: 0300 to 0900 UTC 19 August 2019
Forecast type: TEMPORARY: The following changes expected for less than half the time period
Visibility: 3 miles (5 km)
Ceiling: 700 feet AGL
Clouds: broken clouds at 700 feet AGL
Weather: -RA  (light rain)
Text: TEMPO 1903/1909 5000 -RA BKN007
Forecast period: 0900 UTC 19 August 2019 to 0600 UTC 20 August 2019
Forecast type: BECOMING: Conditions expected to become as follows by 1100 UTC 19 August 2019
Winds: from the SW (230 degrees) at 12 MPH (10 knots; 5.1 m/s)
Visibility: 6 or more miles 10+ km)
Ceiling: 1000 feet AGL
Clouds: broken clouds at 1000 feet AGL
Weather: no significant weather forecast for this period